»·PEaware :: N181XT 1WA6-KBLI

N181XT :: 1WA6-KBLI

FLIGHT INFORMATION

Flight Status: Arrived
Operator: Privately registered:
United States
More flights under this callsign
Pilot: Dimitrios T. (45089)
Aircraft: BEECH AIRCRAFT BARON
(BE58)
More flights by this aircraft type
Origin: 1WA6 Fall City
United States
Destination: KBLI Bellingham Intl
United States
More flights between these airports :: More routes between these airports
Route: WOODI BOCAT
File this flight plan on PilotEdge
Remarks:
Altitude:
(Current/Filed)
6,500ft
Speed:
(Current/Filed)
160kts
Departed: 26-Nov-23 11:42 AM
Arrived: 26-Nov-23 12:13 PM
Distance/Time
Traveled:
79nm/0:31
Distance/Time
To Go:
Arrived

Flight Plot

Page will automatically refresh every two minutes.

Flight plan parsing failed; only flown route is shown


Map Options




Map Legend


Flown Route
Filed Route
Departure Airport
Arrival Airport
Navaid (VOR, NDB)
Fix

Horizontal Profiles

Position Reports

Time Latitude Longitude Heading Altitude Ground
Speed
26-Nov-23 11:02 47.559053 -121.865600 101 176ft 0kts
26-Nov-23 11:03 47.559053 -121.865600 101 176ft 0kts
26-Nov-23 11:04 47.559053 -121.865600 101 176ft 0kts
26-Nov-23 11:05 47.559053 -121.865600 101 176ft 0kts
26-Nov-23 11:06 47.559053 -121.865600 101 176ft 0kts
26-Nov-23 11:07 47.559053 -121.865600 101 176ft 0kts
26-Nov-23 11:08 47.559053 -121.865600 101 176ft 0kts
26-Nov-23 11:09 47.559053 -121.865600 101 186ft 0kts
26-Nov-23 11:10 47.559053 -121.865600 101 186ft 0kts
26-Nov-23 11:11 47.559053 -121.865600 101 186ft 0kts
26-Nov-23 11:12 47.559053 -121.865600 101 186ft 0kts
26-Nov-23 11:13 47.559053 -121.865600 101 186ft 0kts
26-Nov-23 11:14 47.559053 -121.865600 101 186ft 0kts
26-Nov-23 11:15 47.559053 -121.865600 101 186ft 0kts
26-Nov-23 11:16 47.559053 -121.865600 101 186ft 0kts
26-Nov-23 11:17 47.559053 -121.865600 101 186ft 0kts
26-Nov-23 11:18 47.559053 -121.865600 101 186ft 0kts
26-Nov-23 11:19 47.559053 -121.865600 101 186ft 0kts
26-Nov-23 11:20 47.559053 -121.865600 101 186ft 0kts
26-Nov-23 11:21 47.559053 -121.865600 101 186ft 0kts
26-Nov-23 11:22 47.559053 -121.865600 101 186ft 0kts
26-Nov-23 11:23 47.559053 -121.865600 101 186ft 0kts
26-Nov-23 11:28 47.559450 -121.865783 9 175ft 0kts
26-Nov-23 11:29 47.559450 -121.865783 9 175ft 0kts
26-Nov-23 11:30 47.559450 -121.865783 9 175ft 0kts
26-Nov-23 11:31 47.559450 -121.865783 9 175ft 0kts
26-Nov-23 11:32 47.559450 -121.865784 9 175ft 0kts
26-Nov-23 11:33 47.559450 -121.865784 9 175ft 0kts
26-Nov-23 11:34 47.559450 -121.865783 9 175ft 0kts
26-Nov-23 11:35 47.559535 -121.865501 61 178ft 0kts
26-Nov-23 11:36 47.559535 -121.865501 61 178ft 0kts
26-Nov-23 11:37 47.559535 -121.865501 61 178ft 0kts
26-Nov-23 11:38 47.559535 -121.865501 61 178ft 0kts
26-Nov-23 11:39 47.559553 -121.864800 104 182ft 10kts
26-Nov-23 11:40 47.558672 -121.860125 283 201ft 1kts
26-Nov-23 11:41 47.560456 -121.869583 285 242ft 112kts
26-Nov-23 11:42 47.590841 -121.892477 19 1110ft 185kts
26-Nov-23 11:43 47.638720 -121.857153 10 1884ft 192kts
26-Nov-23 11:44 47.690742 -121.864832 354 2714ft 183kts
26-Nov-23 11:45 47.740262 -121.861008 2 3010ft 172kts
26-Nov-23 11:46 47.786995 -121.872244 349 3384ft 169kts
26-Nov-23 11:47 47.831839 -121.890583 339 3855ft 169kts
26-Nov-23 11:48 47.873223 -121.921722 332 4390ft 166kts
26-Nov-23 11:49 47.915621 -121.948677 339 4942ft 164kts
26-Nov-23 11:50 47.959690 -121.968918 345 5459ft 165kts
26-Nov-23 11:51 48.003789 -121.989190 341 6027ft 166kts
26-Nov-23 11:52 48.048452 -122.008102 343 6502ft 170kts
26-Nov-23 11:53 48.092449 -122.031294 340 6511ft 165kts
26-Nov-23 11:54 48.135711 -122.053896 340 6504ft 163kts
26-Nov-23 11:55 48.178153 -122.076150 339 6516ft 161kts
26-Nov-23 11:56 48.220763 -122.098491 339 6521ft 163kts
26-Nov-23 11:57 48.263345 -122.120883 339 6521ft 161kts
26-Nov-23 11:58 48.306010 -122.143338 339 6531ft 164kts
26-Nov-23 11:59 48.348364 -122.167079 326 6521ft 161kts
26-Nov-23 12:00 48.387573 -122.199877 330 6514ft 162kts
26-Nov-23 12:01 48.427340 -122.232761 329 6522ft 164kts
26-Nov-23 12:02 48.466754 -122.265390 329 6523ft 166kts
26-Nov-23 12:03 48.507355 -122.299067 329 6520ft 167kts
26-Nov-23 12:04 48.548123 -122.332926 329 6570ft 164kts
26-Nov-23 12:05 48.590976 -122.368633 330 6013ft 179kts
26-Nov-23 12:06 48.634169 -122.404635 330 4929ft 178kts
26-Nov-23 12:07 48.677967 -122.439910 333 3735ft 177kts
26-Nov-23 12:08 48.698528 -122.501880 271 2512ft 167kts
26-Nov-23 12:09 48.720600 -122.539197 9 1495ft 136kts
26-Nov-23 12:10 48.752997 -122.537342 359 736ft 98kts
26-Nov-23 12:11 48.781387 -122.537507 0 219ft 105kts
26-Nov-23 12:12 48.793357 -122.536155 40 145ft 0kts
26-Nov-23 12:13 48.793359 -122.536153 40 145ft 0kts
26-Nov-23 12:14 48.794234 -122.533093 92 145ft 10kts
26-Nov-23 12:15 48.793567 -122.531852 141 145ft 0kts
26-Nov-23 12:16 48.793567 -122.531852 141 145ft 0kts

Navigation Log

Ident Type
Flight plan parsing failed, navigation log unavailable